sensor_id;sensor_type;location;lat;lon;timestamp;temperature;humidity
21646;DHT22;10984;45.712;4.800;2023-10-13T00:01:01;16.30;52.60
21646;DHT22;10984;45.712;4.800;2023-10-13T00:03:30;16.30;57.00
21646;DHT22;10984;45.712;4.800;2023-10-13T00:05:58;16.30;55.70
21646;DHT22;10984;45.712;4.800;2023-10-13T00:08:29;16.30;58.30
21646;DHT22;10984;45.712;4.800;2023-10-13T00:10:55;16.20;66.80
21646;DHT22;10984;45.712;4.800;2023-10-13T00:13:26;16.20;73.70
21646;DHT22;10984;45.712;4.800;2023-10-13T00:15:52;16.20;78.10
21646;DHT22;10984;45.712;4.800;2023-10-13T00:18:36;16.20;82.60
21646;DHT22;10984;45.712;4.800;2023-10-13T00:21:20;16.20;74.70
21646;DHT22;10984;45.712;4.800;2023-10-13T00:24:05;16.20;73.90
21646;DHT22;10984;45.712;4.800;2023-10-13T00:26:49;16.10;75.70
21646;DHT22;10984;45.712;4.800;2023-10-13T00:29:15;16.10;80.80
21646;DHT22;10984;45.712;4.800;2023-10-13T00:31:59;16.20;77.80
21646;DHT22;10984;45.712;4.800;2023-10-13T00:34:25;16.20;92.30
21646;DHT22;10984;45.712;4.800;2023-10-13T00:36:54;16.20;90.80
21646;DHT22;10984;45.712;4.800;2023-10-13T00:39:40;16.20;83.10
21646;DHT22;10984;45.712;4.800;2023-10-13T00:42:09;16.20;77.20
21646;DHT22;10984;45.712;4.800;2023-10-13T00:44:44;16.10;75.30
21646;DHT22;10984;45.712;4.800;2023-10-13T00:47:15;16.10;69.90
21646;DHT22;10984;45.712;4.800;2023-10-13T00:50:02;16.10;74.00
21646;DHT22;10984;45.712;4.800;2023-10-13T00:52:29;16.10;75.50
21646;DHT22;10984;45.712;4.800;2023-10-13T00:54:56;16.10;85.50
21646;DHT22;10984;45.712;4.800;2023-10-13T00:57:25;16.10;86.80
21646;DHT22;10984;45.712;4.800;2023-10-13T01:00:10;16.10;91.00
21646;DHT22;10984;45.712;4.800;2023-10-13T01:02:54;16.00;99.30
21646;DHT22;10984;45.712;4.800;2023-10-13T01:05:39;16.00;98.20
21646;DHT22;10984;45.712;4.800;2023-10-13T01:08:06;16.00;96.40
21646;DHT22;10984;45.712;4.800;2023-10-13T01:10:36;16.00;98.00
21646;DHT22;10984;45.712;4.800;2023-10-13T01:13:03;16.00;95.00
21646;DHT22;10984;45.712;4.800;2023-10-13T01:15:28;16.00;92.70
21646;DHT22;10984;45.712;4.800;2023-10-13T01:18:13;15.90;97.70
21646;DHT22;10984;45.712;4.800;2023-10-13T01:20:57;15.90;98.40
21646;DHT22;10984;45.712;4.800;2023-10-13T01:23:27;15.90;95.30
21646;DHT22;10984;45.712;4.800;2023-10-13T01:25:54;15.90;95.20
21646;DHT22;10984;45.712;4.800;2023-10-13T01:28:22;15.90;98.10
21646;DHT22;10984;45.712;4.800;2023-10-13T01:30:49;15.90;99.70
21646;DHT22;10984;45.712;4.800;2023-10-13T01:33:33;15.80;99.90
21646;DHT22;10984;45.712;4.800;2023-10-13T01:36:00;15.80;99.90
21646;DHT22;10984;45.712;4.800;2023-10-13T01:38:32;15.80;99.90
21646;DHT22;10984;45.712;4.800;2023-10-13T01:40:58;15.80;99.90
21646;DHT22;10984;45.712;4.800;2023-10-13T01:43:24;15.80;99.90
21646;DHT22;10984;45.712;4.800;2023-10-13T01:45:50;15.70;99.90
21646;DHT22;10984;45.712;4.800;2023-10-13T01:48:16;15.70;99.90
21646;DHT22;10984;45.712;4.800;2023-10-13T01:50:45;15.70;99.90
21646;DHT22;10984;45.712;4.800;2023-10-13T01:53:29;15.80;99.90
21646;DHT22;10984;45.712;4.800;2023-10-13T01:55:55;15.70;99.90
21646;DHT22;10984;45.712;4.800;2023-10-13T01:58:40;15.80;99.90
21646;DHT22;10984;45.712;4.800;2023-10-13T02:01:24;15.80;99.90
21646;DHT22;10984;45.712;4.800;2023-10-13T02:03:58;15.70;99.90
21646;DHT22;10984;45.712;4.800;2023-10-13T02:06:42;15.70;99.90
21646;DHT22;10984;45.712;4.800;2023-10-13T02:09:08;15.70;99.90
21646;DHT22;10984;45.712;4.800;2023-10-13T02:11:53;15.70;99.90
21646;DHT22;10984;45.712;4.800;2023-10-13T02:14:20;15.70;99.90
21646;DHT22;10984;45.712;4.800;2023-10-13T02:16:48;15.70;99.90
21646;DHT22;10984;45.712;4.800;2023-10-13T02:19:16;15.70;99.90
21646;DHT22;10984;45.712;4.800;2023-10-13T02:21:45;15.70;99.90
21646;DHT22;10984;45.712;4.800;2023-10-13T02:24:11;15.70;99.90
21646;DHT22;10984;45.712;4.800;2023-10-13T02:26:56;15.70;99.90
21646;DHT22;10984;45.712;4.800;2023-10-13T02:29:28;15.70;99.90
21646;DHT22;10984;45.712;4.800;2023-10-13T02:31:53;15.70;99.90
21646;DHT22;10984;45.712;4.800;2023-10-13T02:34:21;15.70;99.90
21646;DHT22;10984;45.712;4.800;2023-10-13T02:36:49;15.70;99.90
21646;DHT22;10984;45.712;4.800;2023-10-13T02:39:18;15.60;99.90
21646;DHT22;10984;45.712;4.800;2023-10-13T02:42:02;15.60;99.90
21646;DHT22;10984;45.712;4.800;2023-10-13T02:44:46;15.50;99.90
21646;DHT22;10984;45.712;4.800;2023-10-13T02:47:12;15.50;99.90
21646;DHT22;10984;45.712;4.800;2023-10-13T02:49:56;15.60;99.90
21646;DHT22;10984;45.712;4.800;2023-10-13T02:52:26;15.60;99.90
21646;DHT22;10984;45.712;4.800;2023-10-13T02:54:52;15.60;99.90
21646;DHT22;10984;45.712;4.800;2023-10-13T02:57:18;15.60;99.90
21646;DHT22;10984;45.712;4.800;2023-10-13T02:59:45;15.60;99.90
21646;DHT22;10984;45.712;4.800;2023-10-13T03:02:29;15.50;99.90
21646;DHT22;10984;45.712;4.800;2023-10-13T03:04:57;15.50;99.90
21646;DHT22;10984;45.712;4.800;2023-10-13T03:07:41;15.50;99.90
21646;DHT22;10984;45.712;4.800;2023-10-13T03:10:25;15.50;99.90
21646;DHT22;10984;45.712;4.800;2023-10-13T03:12:54;15.50;99.90
21646;DHT22;10984;45.712;4.800;2023-10-13T03:15:21;15.40;99.90
21646;DHT22;10984;45.712;4.800;2023-10-13T03:17:54;15.40;99.90
21646;DHT22;10984;45.712;4.800;2023-10-13T03:20:20;15.40;99.90
21646;DHT22;10984;45.712;4.800;2023-10-13T03:23:06;15.40;99.90
21646;DHT22;10984;45.712;4.800;2023-10-13T03:25:35;15.40;99.90
21646;DHT22;10984;45.712;4.800;2023-10-13T03:28:19;15.30;99.90
21646;DHT22;10984;45.712;4.800;2023-10-13T03:30:51;15.30;99.90
21646;DHT22;10984;45.712;4.800;2023-10-13T03:33:18;15.30;99.90
21646;DHT22;10984;45.712;4.800;2023-10-13T03:36:03;15.30;99.90
21646;DHT22;10984;45.712;4.800;2023-10-13T03:38:31;15.30;99.90
21646;DHT22;10984;45.712;4.800;2023-10-13T03:41:02;15.30;99.90
21646;DHT22;10984;45.712;4.800;2023-10-13T03:43:46;15.30;99.90
21646;DHT22;10984;45.712;4.800;2023-10-13T03:46:17;15.30;99.90
21646;DHT22;10984;45.712;4.800;2023-10-13T03:51:39;15.30;99.90
21646;DHT22;10984;45.712;4.800;2023-10-13T03:54:05;15.30;99.90
21646;DHT22;10984;45.712;4.800;2023-10-13T03:56:33;15.30;99.90
21646;DHT22;10984;45.712;4.800;2023-10-13T03:59:17;15.30;99.90
21646;DHT22;10984;45.712;4.800;2023-10-13T04:01:43;15.30;99.90
21646;DHT22;10984;45.712;4.800;2023-10-13T04:04:09;15.30;99.90
21646;DHT22;10984;45.712;4.800;2023-10-13T04:06:37;15.30;99.90
21646;DHT22;10984;45.712;4.800;2023-10-13T04:09:22;15.30;99.90
21646;DHT22;10984;45.712;4.800;2023-10-13T04:12:07;15.30;99.90
21646;DHT22;10984;45.712;4.800;2023-10-13T04:14:52;15.20;99.90
21646;DHT22;10984;45.712;4.800;2023-10-13T04:17:36;15.20;99.90
21646;DHT22;10984;45.712;4.800;2023-10-13T04:20:20;15.20;99.90
21646;DHT22;10984;45.712;4.800;2023-10-13T04:23:04;15.20;99.90
21646;DHT22;10984;45.712;4.800;2023-10-13T04:25:48;15.20;99.90
21646;DHT22;10984;45.712;4.800;2023-10-13T04:28:15;15.20;99.90
21646;DHT22;10984;45.712;4.800;2023-10-13T04:30:59;15.10;99.90
21646;DHT22;10984;45.712;4.800;2023-10-13T04:33:33;15.10;99.90
21646;DHT22;10984;45.712;4.800;2023-10-13T04:36:17;15.10;99.90
21646;DHT22;10984;45.712;4.800;2023-10-13T04:39:01;15.20;99.90
21646;DHT22;10984;45.712;4.800;2023-10-13T04:41:46;15.20;99.90
21646;DHT22;10984;45.712;4.800;2023-10-13T04:44:30;15.20;99.90
21646;DHT22;10984;45.712;4.800;2023-10-13T04:47:14;15.30;99.90
21646;DHT22;10984;45.712;4.800;2023-10-13T04:49:58;15.30;99.90
21646;DHT22;10984;45.712;4.800;2023-10-13T04:52:26;15.40;99.90
21646;DHT22;10984;45.712;4.800;2023-10-13T04:55:10;15.40;99.90
21646;DHT22;10984;45.712;4.800;2023-10-13T04:57:54;15.40;99.90
21646;DHT22;10984;45.712;4.800;2023-10-13T05:00:35;15.40;99.90
21646;DHT22;10984;45.712;4.800;2023-10-13T05:03:19;15.50;99.90
21646;DHT22;10984;45.712;4.800;2023-10-13T05:06:06;15.50;99.90
21646;DHT22;10984;45.712;4.800;2023-10-13T05:08:52;15.60;99.90
21646;DHT22;10984;45.712;4.800;2023-10-13T05:11:36;15.60;99.90
21646;DHT22;10984;45.712;4.800;2023-10-13T05:14:20;15.60;99.90
21646;DHT22;10984;45.712;4.800;2023-10-13T05:17:04;15.60;99.90
21646;DHT22;10984;45.712;4.800;2023-10-13T05:19:49;15.60;99.90
21646;DHT22;10984;45.712;4.800;2023-10-13T05:22:33;15.60;99.90
21646;DHT22;10984;45.712;4.800;2023-10-13T05:25:17;15.60;99.90
21646;DHT22;10984;45.712;4.800;2023-10-13T05:28:01;15.60;99.90
21646;DHT22;10984;45.712;4.800;2023-10-13T05:30:45;15.60;99.90
21646;DHT22;10984;45.712;4.800;2023-10-13T05:33:29;15.50;99.90
21646;DHT22;10984;45.712;4.800;2023-10-13T05:36:14;15.50;99.90
21646;DHT22;10984;45.712;4.800;2023-10-13T05:38:58;15.50;99.90
21646;DHT22;10984;45.712;4.800;2023-10-13T05:41:42;15.40;99.90
21646;DHT22;10984;45.712;4.800;2023-10-13T05:44:26;15.40;99.90
21646;DHT22;10984;45.712;4.800;2023-10-13T05:47:10;15.30;99.90
21646;DHT22;10984;45.712;4.800;2023-10-13T05:49:54;15.20;99.90
21646;DHT22;10984;45.712;4.800;2023-10-13T05:52:30;15.10;99.90
21646;DHT22;10984;45.712;4.800;2023-10-13T05:55:14;15.10;99.90
21646;DHT22;10984;45.712;4.800;2023-10-13T05:57:58;15.10;99.90
21646;DHT22;10984;45.712;4.800;2023-10-13T06:00:42;15.10;99.90
21646;DHT22;10984;45.712;4.800;2023-10-13T06:03:26;15.10;99.90
21646;DHT22;10984;45.712;4.800;2023-10-13T06:06:10;15.10;99.90
21646;DHT22;10984;45.712;4.800;2023-10-13T06:08:54;15.10;99.90
21646;DHT22;10984;45.712;4.800;2023-10-13T06:11:38;15.20;99.90
21646;DHT22;10984;45.712;4.800;2023-10-13T06:14:22;15.20;99.90
21646;DHT22;10984;45.712;4.800;2023-10-13T06:17:06;15.10;99.90
21646;DHT22;10984;45.712;4.800;2023-10-13T06:19:50;15.20;99.90
21646;DHT22;10984;45.712;4.800;2023-10-13T06:22:34;15.20;99.90
21646;DHT22;10984;45.712;4.800;2023-10-13T06:25:18;15.20;99.90
21646;DHT22;10984;45.712;4.800;2023-10-13T06:28:03;15.20;99.90
21646;DHT22;10984;45.712;4.800;2023-10-13T06:31:06;15.20;99.90
21646;DHT22;10984;45.712;4.800;2023-10-13T06:33:32;15.30;99.90
21646;DHT22;10984;45.712;4.800;2023-10-13T06:36:16;15.30;99.90
21646;DHT22;10984;45.712;4.800;2023-10-13T06:38:43;15.30;99.90
21646;DHT22;10984;45.712;4.800;2023-10-13T06:41:09;15.30;99.90
21646;DHT22;10984;45.712;4.800;2023-10-13T06:43:45;15.40;99.90
21646;DHT22;10984;45.712;4.800;2023-10-13T06:46:11;15.40;99.90
21646;DHT22;10984;45.712;4.800;2023-10-13T06:48:55;15.40;99.90
21646;DHT22;10984;45.712;4.800;2023-10-13T06:51:20;15.40;99.90
21646;DHT22;10984;45.712;4.800;2023-10-13T06:54:06;15.50;99.90
21646;DHT22;10984;45.712;4.800;2023-10-13T06:56:36;15.50;99.90
21646;DHT22;10984;45.712;4.800;2023-10-13T06:59:05;15.50;99.90
21646;DHT22;10984;45.712;4.800;2023-10-13T07:01:32;15.60;99.90
21646;DHT22;10984;45.712;4.800;2023-10-13T07:04:16;15.60;99.90
21646;DHT22;10984;45.712;4.800;2023-10-13T07:06:42;15.70;99.90
21646;DHT22;10984;45.712;4.800;2023-10-13T07:09:14;15.70;99.90
21646;DHT22;10984;45.712;4.800;2023-10-13T07:12:17;15.70;99.90
21646;DHT22;10984;45.712;4.800;2023-10-13T07:14:48;15.80;99.90
21646;DHT22;10984;45.712;4.800;2023-10-13T07:17:33;15.90;99.90
21646;DHT22;10984;45.712;4.800;2023-10-13T07:20:05;15.90;99.90
21646;DHT22;10984;45.712;4.800;2023-10-13T07:22:50;16.00;99.90
21646;DHT22;10984;45.712;4.800;2023-10-13T07:25:35;16.10;99.90
21646;DHT22;10984;45.712;4.800;2023-10-13T07:31:06;16.50;99.90
21646;DHT22;10984;45.712;4.800;2023-10-13T07:33:50;16.80;99.90
21646;DHT22;10984;45.712;4.800;2023-10-13T07:36:16;17.00;99.90
21646;DHT22;10984;45.712;4.800;2023-10-13T07:38:49;17.10;99.90
21646;DHT22;10984;45.712;4.800;2023-10-13T07:41:35;17.30;99.90
21646;DHT22;10984;45.712;4.800;2023-10-13T07:44:02;17.50;99.90
21646;DHT22;10984;45.712;4.800;2023-10-13T07:46:30;17.60;99.90
21646;DHT22;10984;45.712;4.800;2023-10-13T07:48:58;17.70;99.90
21646;DHT22;10984;45.712;4.800;2023-10-13T07:51:35;17.90;99.90
21646;DHT22;10984;45.712;4.800;2023-10-13T07:54:10;18.00;99.90
21646;DHT22;10984;45.712;4.800;2023-10-13T07:56:38;18.10;99.90
21646;DHT22;10984;45.712;4.800;2023-10-13T07:59:05;18.20;99.90
21646;DHT22;10984;45.712;4.800;2023-10-13T08:01:33;18.20;99.90
21646;DHT22;10984;45.712;4.800;2023-10-13T08:03:59;18.30;99.90
21646;DHT22;10984;45.712;4.800;2023-10-13T08:06:43;18.40;99.90
21646;DHT22;10984;45.712;4.800;2023-10-13T08:09:10;18.50;99.90
21646;DHT22;10984;45.712;4.800;2023-10-13T08:11:56;18.60;99.90
21646;DHT22;10984;45.712;4.800;2023-10-13T08:14:22;18.70;99.90
21646;DHT22;10984;45.712;4.800;2023-10-13T08:16:48;18.70;99.90
21646;DHT22;10984;45.712;4.800;2023-10-13T08:19:32;18.80;99.90
21646;DHT22;10984;45.712;4.800;2023-10-13T08:22:17;18.90;99.90
21646;DHT22;10984;45.712;4.800;2023-10-13T08:25:01;19.00;99.90
21646;DHT22;10984;45.712;4.800;2023-10-13T08:27:45;19.00;99.90
21646;DHT22;10984;45.712;4.800;2023-10-13T08:30:29;19.10;99.90
21646;DHT22;10984;45.712;4.800;2023-10-13T08:32:55;19.20;99.90
21646;DHT22;10984;45.712;4.800;2023-10-13T08:35:22;19.30;99.90
21646;DHT22;10984;45.712;4.800;2023-10-13T08:37:49;19.30;99.90
21646;DHT22;10984;45.712;4.800;2023-10-13T08:40:33;19.40;99.90
21646;DHT22;10984;45.712;4.800;2023-10-13T08:43:17;19.50;99.90
21646;DHT22;10984;45.712;4.800;2023-10-13T08:45:43;19.60;10.10
21646;DHT22;10984;45.712;4.800;2023-10-13T08:48:27;19.60;1.00
21646;DHT22;10984;45.712;4.800;2023-10-13T08:50:57;19.70;1.00
21646;DHT22;10984;45.712;4.800;2023-10-13T08:53:29;19.80;1.00
21646;DHT22;10984;45.712;4.800;2023-10-13T08:56:13;19.90;1.00
21646;DHT22;10984;45.712;4.800;2023-10-13T08:58:49;20.00;1.00
21646;DHT22;10984;45.712;4.800;2023-10-13T09:01:51;20.10;1.00
21646;DHT22;10984;45.712;4.800;2023-10-13T09:04:36;20.10;1.00
21646;DHT22;10984;45.712;4.800;2023-10-13T09:07:04;20.20;1.00
21646;DHT22;10984;45.712;4.800;2023-10-13T09:09:50;20.30;1.00
21646;DHT22;10984;45.712;4.800;2023-10-13T09:12:20;20.30;1.00
21646;DHT22;10984;45.712;4.800;2023-10-13T09:15:10;20.40;1.00
21646;DHT22;10984;45.712;4.800;2023-10-13T09:17:54;20.50;1.00
21646;DHT22;10984;45.712;4.800;2023-10-13T09:20:38;20.50;1.00
21646;DHT22;10984;45.712;4.800;2023-10-13T09:25:54;20.70;1.00
21646;DHT22;10984;45.712;4.800;2023-10-13T09:28:34;20.80;1.00
21646;DHT22;10984;45.712;4.800;2023-10-13T09:31:03;20.80;1.00
21646;DHT22;10984;45.712;4.800;2023-10-13T09:33:33;20.80;1.00
21646;DHT22;10984;45.712;4.800;2023-10-13T09:36:02;20.90;1.00
21646;DHT22;10984;45.712;4.800;2023-10-13T09:38:32;20.90;1.00
21646;DHT22;10984;45.712;4.800;2023-10-13T09:40:59;21.00;1.00
21646;DHT22;10984;45.712;4.800;2023-10-13T09:43:35;21.10;1.00
21646;DHT22;10984;45.712;4.800;2023-10-13T09:46:04;21.20;1.00
21646;DHT22;10984;45.712;4.800;2023-10-13T09:48:34;21.30;1.00
21646;DHT22;10984;45.712;4.800;2023-10-13T09:51:19;21.40;1.00
21646;DHT22;10984;45.712;4.800;2023-10-13T09:54:02;21.50;1.00
21646;DHT22;10984;45.712;4.800;2023-10-13T09:56:50;21.60;1.00
21646;DHT22;10984;45.712;4.800;2023-10-13T09:59:40;21.70;1.00
21646;DHT22;10984;45.712;4.800;2023-10-13T10:02:14;21.70;1.00
21646;DHT22;10984;45.712;4.800;2023-10-13T10:05:04;21.80;1.00
21646;DHT22;10984;45.712;4.800;2023-10-13T10:08:07;21.90;1.00
21646;DHT22;10984;45.712;4.800;2023-10-13T10:19:49;22.10;1.00
21646;DHT22;10984;45.712;4.800;2023-10-13T10:22:25;22.20;1.00
21646;DHT22;10984;45.712;4.800;2023-10-13T10:25:11;22.20;99.90
21646;DHT22;10984;45.712;4.800;2023-10-13T10:28:14;22.30;1.00
21646;DHT22;10984;45.712;4.800;2023-10-13T10:30:42;22.40;99.90
21646;DHT22;10984;45.712;4.800;2023-10-13T10:33:09;22.40;99.90
21646;DHT22;10984;45.712;4.800;2023-10-13T10:36:13;22.50;99.90
21646;DHT22;10984;45.712;4.800;2023-10-13T10:38:57;22.50;99.90
21646;DHT22;10984;45.712;4.800;2023-10-13T10:41:41;22.50;99.90
21646;DHT22;10984;45.712;4.800;2023-10-13T10:44:25;22.60;99.90
21646;DHT22;10984;45.712;4.800;2023-10-13T10:47:10;22.60;99.90
21646;DHT22;10984;45.712;4.800;2023-10-13T10:49:55;22.70;99.90
21646;DHT22;10984;45.712;4.800;2023-10-13T10:52:21;22.70;99.90
21646;DHT22;10984;45.712;4.800;2023-10-13T10:54:58;22.70;99.90
21646;DHT22;10984;45.712;4.800;2023-10-13T10:57:24;22.80;99.90
21646;DHT22;10984;45.712;4.800;2023-10-13T10:59:54;22.80;99.90
21646;DHT22;10984;45.712;4.800;2023-10-13T11:02:37;22.80;99.90
21646;DHT22;10984;45.712;4.800;2023-10-13T11:05:03;22.90;99.90
21646;DHT22;10984;45.712;4.800;2023-10-13T11:07:31;22.90;99.90
21646;DHT22;10984;45.712;4.800;2023-10-13T11:10:07;22.90;99.90
21646;DHT22;10984;45.712;4.800;2023-10-13T11:12:37;22.90;99.90
21646;DHT22;10984;45.712;4.800;2023-10-13T11:15:06;22.90;99.90
21646;DHT22;10984;45.712;4.800;2023-10-13T11:17:39;22.90;99.90
21646;DHT22;10984;45.712;4.800;2023-10-13T11:20:23;23.00;99.90
21646;DHT22;10984;45.712;4.800;2023-10-13T11:23:26;23.00;99.90
21646;DHT22;10984;45.712;4.800;2023-10-13T11:26:10;23.00;99.90
21646;DHT22;10984;45.712;4.800;2023-10-13T11:28:37;23.00;99.90
21646;DHT22;10984;45.712;4.800;2023-10-13T11:31:03;22.90;99.90
21646;DHT22;10984;45.712;4.800;2023-10-13T11:33:48;22.90;99.90
21646;DHT22;10984;45.712;4.800;2023-10-13T11:36:16;22.90;99.90
21646;DHT22;10984;45.712;4.800;2023-10-13T11:39:00;22.90;99.90
21646;DHT22;10984;45.712;4.800;2023-10-13T11:41:25;23.00;99.90
21646;DHT22;10984;45.712;4.800;2023-10-13T11:44:09;22.90;99.90
21646;DHT22;10984;45.712;4.800;2023-10-13T11:46:53;23.00;99.90
21646;DHT22;10984;45.712;4.800;2023-10-13T11:49:37;23.00;99.90
21646;DHT22;10984;45.712;4.800;2023-10-13T11:52:03;23.00;99.90
21646;DHT22;10984;45.712;4.800;2023-10-13T11:54:47;23.10;99.90
21646;DHT22;10984;45.712;4.800;2023-10-13T11:57:13;23.10;99.90
21646;DHT22;10984;45.712;4.800;2023-10-13T11:59:42;23.10;99.90
21646;DHT22;10984;45.712;4.800;2023-10-13T12:02:12;23.10;99.90
21646;DHT22;10984;45.712;4.800;2023-10-13T12:04:56;23.10;99.90
21646;DHT22;10984;45.712;4.800;2023-10-13T12:07:23;23.10;99.90
21646;DHT22;10984;45.712;4.800;2023-10-13T12:10:07;23.10;99.90
21646;DHT22;10984;45.712;4.800;2023-10-13T12:12:41;23.20;99.90
21646;DHT22;10984;45.712;4.800;2023-10-13T12:15:08;23.20;99.90
21646;DHT22;10984;45.712;4.800;2023-10-13T12:17:35;23.20;99.90
21646;DHT22;10984;45.712;4.800;2023-10-13T12:20:01;23.20;99.90
21646;DHT22;10984;45.712;4.800;2023-10-13T12:22:31;23.30;99.90
21646;DHT22;10984;45.712;4.800;2023-10-13T12:25:15;23.30;99.90
21646;DHT22;10984;45.712;4.800;2023-10-13T12:28:00;23.30;99.90
21646;DHT22;10984;45.712;4.800;2023-10-13T12:31:03;23.30;99.90
21646;DHT22;10984;45.712;4.800;2023-10-13T12:33:32;23.30;99.90
21646;DHT22;10984;45.712;4.800;2023-10-13T12:36:16;23.30;99.90
21646;DHT22;10984;45.712;4.800;2023-10-13T12:39:00;23.30;99.90
21646;DHT22;10984;45.712;4.800;2023-10-13T12:41:44;23.30;99.90
21646;DHT22;10984;45.712;4.800;2023-10-13T12:44:28;23.40;99.90
21646;DHT22;10984;45.712;4.800;2023-10-13T12:47:12;23.30;99.90
21646;DHT22;10984;45.712;4.800;2023-10-13T12:49:56;23.30;99.90
21646;DHT22;10984;45.712;4.800;2023-10-13T12:52:40;23.30;99.90
21646;DHT22;10984;45.712;4.800;2023-10-13T12:55:10;23.40;99.90
21646;DHT22;10984;45.712;4.800;2023-10-13T12:57:38;23.30;99.90
21646;DHT22;10984;45.712;4.800;2023-10-13T13:00:10;23.40;99.90
21646;DHT22;10984;45.712;4.800;2023-10-13T13:02:42;23.40;99.90
21646;DHT22;10984;45.712;4.800;2023-10-13T13:05:07;23.40;99.90
21646;DHT22;10984;45.712;4.800;2023-10-13T13:07:37;23.40;99.90
21646;DHT22;10984;45.712;4.800;2023-10-13T13:10:22;23.40;99.90
21646;DHT22;10984;45.712;4.800;2023-10-13T13:13:06;23.40;99.90
21646;DHT22;10984;45.712;4.800;2023-10-13T13:15:32;23.40;99.90
21646;DHT22;10984;45.712;4.800;2023-10-13T13:17:58;23.50;99.90
21646;DHT22;10984;45.712;4.800;2023-10-13T13:20:35;23.40;99.90
21646;DHT22;10984;45.712;4.800;2023-10-13T13:23:04;23.40;99.90
21646;DHT22;10984;45.712;4.800;2023-10-13T13:25:30;23.40;99.90
21646;DHT22;10984;45.712;4.800;2023-10-13T13:27:57;23.40;99.90
21646;DHT22;10984;45.712;4.800;2023-10-13T13:30:26;23.40;99.90
21646;DHT22;10984;45.712;4.800;2023-10-13T13:33:10;23.30;99.90
21646;DHT22;10984;45.712;4.800;2023-10-13T13:35:55;23.30;99.90
21646;DHT22;10984;45.712;4.800;2023-10-13T13:38:20;23.20;99.90
21646;DHT22;10984;45.712;4.800;2023-10-13T13:41:05;23.30;99.90
21646;DHT22;10984;45.712;4.800;2023-10-13T13:43:34;23.20;99.90
21646;DHT22;10984;45.712;4.800;2023-10-13T13:46:19;23.40;99.90
21646;DHT22;10984;45.712;4.800;2023-10-13T13:51:44;23.30;99.90
21646;DHT22;10984;45.712;4.800;2023-10-13T13:54:09;23.30;99.90
21646;DHT22;10984;45.712;4.800;2023-10-13T13:56:35;23.30;99.90
21646;DHT22;10984;45.712;4.800;2023-10-13T13:59:04;23.40;99.90
21646;DHT22;10984;45.712;4.800;2023-10-13T14:01:48;23.30;99.90
21646;DHT22;10984;45.712;4.800;2023-10-13T14:04:14;23.30;99.90
21646;DHT22;10984;45.712;4.800;2023-10-13T14:06:44;23.30;99.90
21646;DHT22;10984;45.712;4.800;2023-10-13T14:09:11;23.40;99.90
21646;DHT22;10984;45.712;4.800;2023-10-13T14:11:56;23.40;99.90
21646;DHT22;10984;45.712;4.800;2023-10-13T14:14:40;23.30;99.90
21646;DHT22;10984;45.712;4.800;2023-10-13T14:17:12;23.30;99.90
21646;DHT22;10984;45.712;4.800;2023-10-13T14:19:38;23.20;99.90
21646;DHT22;10984;45.712;4.800;2023-10-13T14:22:06;23.20;99.90
21646;DHT22;10984;45.712;4.800;2023-10-13T14:24:34;23.20;99.90
21646;DHT22;10984;45.712;4.800;2023-10-13T14:27:02;23.20;99.90
21646;DHT22;10984;45.712;4.800;2023-10-13T14:29:46;23.20;99.90
21646;DHT22;10984;45.712;4.800;2023-10-13T14:32:14;23.20;99.90
21646;DHT22;10984;45.712;4.800;2023-10-13T14:34:44;23.20;99.90
21646;DHT22;10984;45.712;4.800;2023-10-13T14:37:11;23.20;99.90
21646;DHT22;10984;45.712;4.800;2023-10-13T14:39:55;23.20;99.90
21646;DHT22;10984;45.712;4.800;2023-10-13T14:42:39;23.20;99.90
21646;DHT22;10984;45.712;4.800;2023-10-13T14:45:23;23.20;99.90
21646;DHT22;10984;45.712;4.800;2023-10-13T14:47:49;23.10;99.90
21646;DHT22;10984;45.712;4.800;2023-10-13T14:50:18;23.20;99.90
21646;DHT22;10984;45.712;4.800;2023-10-13T14:55:32;23.00;99.90
21646;DHT22;10984;45.712;4.800;2023-10-13T14:58:17;23.00;99.90
21646;DHT22;10984;45.712;4.800;2023-10-13T15:00:43;23.00;99.90
21646;DHT22;10984;45.712;4.800;2023-10-13T15:03:11;22.90;99.90
21646;DHT22;10984;45.712;4.800;2023-10-13T15:05:55;23.00;99.90
21646;DHT22;10984;45.712;4.800;2023-10-13T15:08:21;23.00;99.90
21646;DHT22;10984;45.712;4.800;2023-10-13T15:10:46;23.00;99.90
21646;DHT22;10984;45.712;4.800;2023-10-13T15:13:12;23.00;99.90
21646;DHT22;10984;45.712;4.800;2023-10-13T15:15:38;23.00;99.90
21646;DHT22;10984;45.712;4.800;2023-10-13T15:18:04;22.90;99.90
21646;DHT22;10984;45.712;4.800;2023-10-13T15:20:30;22.90;99.90
21646;DHT22;10984;45.712;4.800;2023-10-13T15:22:56;22.90;99.90
21646;DHT22;10984;45.712;4.800;2023-10-13T15:25:26;22.80;99.90
21646;DHT22;10984;45.712;4.800;2023-10-13T15:28:10;22.80;99.90
21646;DHT22;10984;45.712;4.800;2023-10-13T15:30:36;22.80;99.90
21646;DHT22;10984;45.712;4.800;2023-10-13T15:33:17;22.70;99.90
21646;DHT22;10984;45.712;4.800;2023-10-13T15:35:45;22.70;99.90
21646;DHT22;10984;45.712;4.800;2023-10-13T15:38:11;22.60;99.90
21646;DHT22;10984;45.712;4.800;2023-10-13T15:40:59;22.60;99.90
21646;DHT22;10984;45.712;4.800;2023-10-13T15:43:24;22.50;99.90
21646;DHT22;10984;45.712;4.800;2023-10-13T15:45:50;22.50;99.90
21646;DHT22;10984;45.712;4.800;2023-10-13T15:48:16;22.50;99.90
21646;DHT22;10984;45.712;4.800;2023-10-13T15:50:42;22.40;99.90
21646;DHT22;10984;45.712;4.800;2023-10-13T15:53:08;22.40;99.90
21646;DHT22;10984;45.712;4.800;2023-10-13T15:55:38;22.30;99.90
21646;DHT22;10984;45.712;4.800;2023-10-13T15:58:06;22.30;99.90
21646;DHT22;10984;45.712;4.800;2023-10-13T16:00:53;22.20;99.90
21646;DHT22;10984;45.712;4.800;2023-10-13T16:03:21;22.20;99.90
21646;DHT22;10984;45.712;4.800;2023-10-13T16:05:48;22.10;99.90
21646;DHT22;10984;45.712;4.800;2023-10-13T16:08:14;22.10;99.90
21646;DHT22;10984;45.712;4.800;2023-10-13T16:10:40;22.00;99.90
21646;DHT22;10984;45.712;4.800;2023-10-13T16:13:06;22.00;99.90
21646;DHT22;10984;45.712;4.800;2023-10-13T16:15:36;21.90;99.90
21646;DHT22;10984;45.712;4.800;2023-10-13T16:18:08;21.90;99.90
21646;DHT22;10984;45.712;4.800;2023-10-13T16:20:36;21.90;99.90
21646;DHT22;10984;45.712;4.800;2023-10-13T16:23:01;21.90;99.90
21646;DHT22;10984;45.712;4.800;2023-10-13T16:25:27;21.90;99.90
21646;DHT22;10984;45.712;4.800;2023-10-13T16:27:52;21.80;1.00
21646;DHT22;10984;45.712;4.800;2023-10-13T16:30:18;21.80;1.00
21646;DHT22;10984;45.712;4.800;2023-10-13T16:32:47;21.70;1.00
21646;DHT22;10984;45.712;4.800;2023-10-13T16:35:16;21.70;1.00
21646;DHT22;10984;45.712;4.800;2023-10-13T16:38:01;21.70;1.00
21646;DHT22;10984;45.712;4.800;2023-10-13T16:40:32;21.60;1.00
21646;DHT22;10984;45.712;4.800;2023-10-13T16:42:57;21.60;1.00
21646;DHT22;10984;45.712;4.800;2023-10-13T16:45:23;21.60;1.00
21646;DHT22;10984;45.712;4.800;2023-10-13T16:47:51;21.50;1.00